Miami, Florida
Current Conditions -  °F | °C
As of 5:53 PM on Thursday 27 Nov 2014 (Local Time) from KMIA Reporting Station
Scattered Clouds Scattered Clouds  
Wind Chill: 21°   Ceiling: Unl
Heat Index: 21°   Visibility: 10mi
Dew Point:   Wind: 6mph
Humidity: 42%   Direction: 350°N
Pressure: 30.17"   Gusts: NA
Location:  25.77°N, 80.19°W
Report Text: KMIA 272253Z 35005KT 10SM FEW040 SCT150 21/07 A3017 RMK AO2 SLP217 T02060072
Loading
Personal Weather Stations






























Interactive Weather Map New forecast layout! Learn more

10-Day Weather Forecast

Advertisements
Track Severe Weather on mobile